createdAt,value
2023-01-18T00:01:19.805Z,98129.06
2023-01-18T00:03:47.379Z,98121.44
2023-01-18T00:06:15.187Z,98117.16
2023-01-18T00:08:45.105Z,98107.84
2023-01-18T00:11:15.489Z,98112.09
2023-01-18T00:13:43.239Z,98107.00
2023-01-18T00:16:19.634Z,98123.91
2023-01-18T00:19:00.067Z,98117.16
2023-01-18T00:21:28.255Z,98123.91
2023-01-18T00:23:57.048Z,98122.22
2023-01-18T00:26:24.165Z,98120.53
2023-01-18T00:28:51.307Z,98117.97
2023-01-18T00:31:20.821Z,98117.09
2023-01-18T00:33:50.032Z,98124.72
2023-01-18T00:36:18.531Z,98127.28
2023-01-18T00:38:51.869Z,98143.41
2023-01-18T00:41:20.320Z,98152.72
2023-01-18T00:43:47.499Z,98151.88
2023-01-18T00:46:20.222Z,98167.13
2023-01-18T00:48:48.369Z,98169.66
2023-01-18T00:51:18.580Z,98164.59
2023-01-18T00:53:45.667Z,98167.97
2023-01-18T00:56:18.777Z,98173.03
2023-01-18T00:58:46.179Z,98175.59
2023-01-18T01:01:14.157Z,98178.13
2023-01-18T01:03:59.750Z,98173.88
2023-01-18T01:06:46.869Z,98158.63
2023-01-18T01:09:26.407Z,98152.69
2023-01-18T01:12:13.114Z,98144.22
2023-01-18T01:15:02.126Z,98150.97
2023-01-18T01:17:49.483Z,98146.72
2023-01-18T01:20:35.340Z,98135.69
2023-01-18T01:23:35.235Z,98129.78
2023-01-18T01:26:12.992Z,98125.56
2023-01-18T01:28:42.423Z,98135.72
2023-01-18T01:31:12.910Z,98144.22
2023-01-18T01:33:40.553Z,98145.09
2023-01-18T01:36:13.536Z,98139.16
2023-01-18T01:38:43.844Z,98154.41
2023-01-18T01:41:35.278Z,98146.84
2023-01-18T01:44:30.044Z,98146.84
2023-01-18T01:47:03.174Z,98152.75
2023-01-18T01:49:35.044Z,98145.94
2023-01-18T01:52:09.484Z,98136.66
2023-01-18T01:54:44.453Z,98131.56
2023-01-18T01:57:22.177Z,98123.94
2023-01-18T02:00:02.676Z,98122.25
2023-01-18T02:02:41.613Z,98134.09
2023-01-18T02:05:13.013Z,98125.63
2023-01-18T02:07:41.497Z,98120.56
2023-01-18T02:10:09.322Z,98120.56
2023-01-18T02:12:39.247Z,98111.22
2023-01-18T02:15:07.774Z,98125.63
2023-01-18T02:17:38.821Z,98123.91
2023-01-18T02:20:25.810Z,98126.50
2023-01-18T02:23:20.492Z,98128.19
2023-01-18T02:26:24.611Z,98123.97
2023-01-18T02:29:21.278Z,98105.34
2023-01-18T02:31:59.081Z,98096.84
2023-01-18T02:34:55.803Z,98088.38
2023-01-18T02:37:28.677Z,98083.28
2023-01-18T02:40:02.474Z,98084.16
2023-01-18T02:42:50.030Z,98083.28
2023-01-18T02:45:47.688Z,98081.59
2023-01-18T02:48:15.885Z,98096.00
2023-01-18T02:50:42.917Z,98090.09
2023-01-18T02:53:14.990Z,98107.00
2023-01-18T02:55:59.430Z,98095.19
2023-01-18T02:58:26.466Z,98098.53
2023-01-18T03:01:32.171Z,98098.50
2023-01-18T03:04:07.236Z,98094.28
2023-01-18T03:06:35.254Z,98099.38
2023-01-18T03:09:03.106Z,98091.75
2023-01-18T03:11:43.762Z,98090.88
2023-01-18T03:14:32.451Z,98084.97
2023-01-18T03:17:23.975Z,98087.50
2023-01-18T03:20:07.831Z,98086.63
2023-01-18T03:23:01.521Z,98099.31
2023-01-18T03:25:33.363Z,98093.34
2023-01-18T03:28:24.575Z,98088.28
2023-01-18T03:31:12.742Z,98091.63
2023-01-18T03:33:46.210Z,98090.78
2023-01-18T03:36:49.005Z,98093.28
2023-01-18T03:39:28.662Z,98089.88
2023-01-18T03:42:02.041Z,98096.66
2023-01-18T03:44:36.023Z,98083.13
2023-01-18T03:47:06.133Z,98098.34
2023-01-18T03:49:34.974Z,98096.66
2023-01-18T03:52:08.189Z,98109.34
2023-01-18T03:54:44.480Z,98091.56
2023-01-18T03:57:25.683Z,98096.63
2023-01-18T03:59:52.882Z,98105.13
2023-01-18T04:02:21.598Z,98094.94
2023-01-18T04:04:48.721Z,98095.78
2023-01-18T04:07:15.950Z,98091.53
2023-01-18T04:09:43.084Z,98089.00
2023-01-18T04:12:10.240Z,98089.00
2023-01-18T04:14:37.284Z,98084.75
2023-01-18T04:17:04.387Z,98084.75
2023-01-18T04:19:31.483Z,98083.03
2023-01-18T04:21:58.551Z,98088.09
2023-01-18T04:24:25.585Z,98083.03
2023-01-18T04:26:52.731Z,98090.63
2023-01-18T04:29:19.813Z,98077.03
2023-01-18T04:31:47.403Z,98089.75
2023-01-18T04:34:14.522Z,98091.44
2023-01-18T04:36:41.652Z,98092.28
2023-01-18T04:39:13.112Z,98089.72
2023-01-18T04:41:40.177Z,98100.78
2023-01-18T04:44:07.487Z,98099.94
2023-01-18T04:46:34.982Z,98095.69
2023-01-18T04:49:02.085Z,98106.72
2023-01-18T04:51:31.494Z,98109.25
2023-01-18T04:54:01.724Z,98110.94
2023-01-18T04:56:28.957Z,98113.50
2023-01-18T04:58:56.144Z,98116.03
2023-01-18T05:01:23.840Z,98122.84
2023-01-18T05:03:53.520Z,98120.31
2023-01-18T05:06:20.938Z,98122.00
2023-01-18T05:08:48.321Z,98108.47
2023-01-18T05:11:17.460Z,98118.63
2023-01-18T05:13:45.710Z,98112.69
2023-01-18T05:16:15.842Z,98115.19
2023-01-18T05:18:43.692Z,98116.06
2023-01-18T05:21:11.118Z,98107.59
2023-01-18T05:23:40.377Z,98113.53
2023-01-18T05:26:14.736Z,98122.00
2023-01-18T05:28:42.854Z,98118.59
2023-01-18T05:31:10.215Z,98120.28
2023-01-18T05:33:37.569Z,98106.72
2023-01-18T05:36:04.995Z,98103.34
2023-01-18T05:38:32.289Z,98118.56
2023-01-18T05:40:59.522Z,98110.94
2023-01-18T05:43:28.662Z,98110.09
2023-01-18T05:45:56.305Z,98111.81
2023-01-18T05:48:24.288Z,98111.81
2023-01-18T05:50:51.481Z,98102.47
2023-01-18T05:53:21.764Z,98113.50
2023-01-18T05:55:59.905Z,98108.41
2023-01-18T05:58:28.458Z,98106.72
2023-01-18T06:00:56.030Z,98108.44
2023-01-18T06:03:24.245Z,98101.63
2023-01-18T06:05:52.127Z,98101.63
2023-01-18T06:08:19.523Z,98110.97
2023-01-18T06:10:58.287Z,98113.53
2023-01-18T06:13:28.271Z,98113.53
2023-01-18T06:15:57.026Z,98110.13
2023-01-18T06:18:26.134Z,98113.50
2023-01-18T06:20:55.084Z,98114.34
2023-01-18T06:23:22.394Z,98113.53
2023-01-18T06:25:49.862Z,98118.59
2023-01-18T06:28:17.312Z,98115.22
2023-01-18T06:30:44.457Z,98116.03
2023-01-18T06:33:11.644Z,98120.28
2023-01-18T06:35:38.942Z,98122.81
2023-01-18T06:38:05.980Z,98110.09
2023-01-18T06:40:33.278Z,98123.66
2023-01-18T06:43:00.666Z,98118.56
2023-01-18T06:45:29.665Z,98113.50
2023-01-18T06:47:56.827Z,98116.88
2023-01-18T06:50:24.029Z,98120.25
2023-01-18T06:52:51.931Z,98115.16
2023-01-18T06:55:19.928Z,98099.91
2023-01-18T06:57:48.062Z,98094.81
2023-01-18T07:00:19.046Z,98113.44
2023-01-18T07:02:46.291Z,98108.38
2023-01-18T07:05:13.369Z,98101.56
2023-01-18T07:07:40.389Z,98102.41
2023-01-18T07:10:08.018Z,98094.81
2023-01-18T07:12:35.935Z,98099.88
2023-01-18T07:15:20.537Z,98112.59
2023-01-18T07:17:50.691Z,98110.91
2023-01-18T07:20:18.651Z,98115.97
2023-01-18T07:22:45.883Z,98118.50
2023-01-18T07:25:13.674Z,98113.47
2023-01-18T07:27:43.804Z,98127.84
2023-01-18T07:30:12.627Z,98121.94
2023-01-18T07:32:40.565Z,98116.84
2023-01-18T07:35:07.971Z,98128.69
2023-01-18T07:37:36.222Z,98132.91
2023-01-18T07:40:03.609Z,98129.50
2023-01-18T07:42:30.739Z,98120.16
2023-01-18T07:44:57.799Z,98114.25
2023-01-18T07:47:24.834Z,98123.50
2023-01-18T07:49:51.943Z,98126.91
2023-01-18T07:52:19.038Z,98130.28
2023-01-18T07:54:46.074Z,98115.03
2023-01-18T07:57:13.576Z,98125.19
2023-01-18T07:59:40.805Z,98118.41
2023-01-18T08:02:11.157Z,98114.16
2023-01-18T08:04:39.566Z,98114.16
2023-01-18T08:07:06.686Z,98103.16
2023-01-18T08:09:34.379Z,98111.66
2023-01-18T08:12:01.926Z,98108.25
2023-01-18T08:14:29.024Z,98112.50
2023-01-18T08:16:56.144Z,98097.22
2023-01-18T08:19:23.342Z,98098.91
2023-01-18T08:21:50.429Z,98094.66
2023-01-18T08:24:17.546Z,98096.31
2023-01-18T08:26:44.796Z,98100.56
2023-01-18T08:29:11.915Z,98059.16
2023-01-18T08:31:39.042Z,98103.09
2023-01-18T08:34:06.222Z,98103.13
2023-01-18T08:36:33.248Z,98107.41
2023-01-18T08:39:00.334Z,98110.75
2023-01-18T08:41:29.151Z,98103.97
2023-01-18T08:43:57.551Z,98113.28
2023-01-18T08:46:25.046Z,98111.56
2023-01-18T08:48:53.938Z,98108.97
2023-01-18T08:51:23.228Z,98113.22
2023-01-18T08:53:56.747Z,98116.59
2023-01-18T08:56:24.123Z,98112.31
2023-01-18T08:58:52.372Z,98103.88
2023-01-18T09:01:19.779Z,98109.75
2023-01-18T09:03:48.988Z,98104.69
2023-01-18T09:06:17.066Z,98104.66
2023-01-18T09:08:47.314Z,98110.59
2023-01-18T09:11:14.502Z,98115.66
2023-01-18T09:14:00.293Z,98100.41
2023-01-18T09:16:29.008Z,98113.94
2023-01-18T09:18:56.614Z,98109.69
2023-01-18T09:21:23.976Z,98106.31
2023-01-18T09:23:51.188Z,98096.16
2023-01-18T09:26:20.918Z,98111.44
2023-01-18T09:28:51.231Z,98102.06
2023-01-18T09:31:19.665Z,98099.56
2023-01-18T09:33:53.239Z,98099.50
2023-01-18T09:36:24.076Z,98087.63
2023-01-18T09:38:51.207Z,98104.56
2023-01-18T09:41:27.090Z,98106.25
2023-01-18T09:44:00.054Z,98113.88
2023-01-18T09:46:28.353Z,98109.66
2023-01-18T09:48:59.532Z,98106.25
2023-01-18T09:51:45.355Z,98112.22
2023-01-18T09:54:28.315Z,98103.69
2023-01-18T09:57:09.142Z,98097.81
2023-01-18T09:59:44.098Z,98105.38
2023-01-18T10:02:23.963Z,98102.81
2023-01-18T10:04:59.358Z,98104.47
2023-01-18T10:07:30.496Z,98074.91
2023-01-18T10:10:01.060Z,98097.66
2023-01-18T10:12:41.310Z,98094.25
2023-01-18T10:15:17.642Z,98099.34
2023-01-18T10:17:45.919Z,98079.03
2023-01-18T10:20:42.942Z,98090.88
2023-01-18T10:23:35.037Z,98096.00
2023-01-18T10:26:08.081Z,98093.44
2023-01-18T10:28:56.526Z,98097.72
2023-01-18T10:31:35.493Z,98097.72
2023-01-18T10:34:04.933Z,98096.84
2023-01-18T10:36:39.178Z,98094.28
2023-01-18T10:39:24.277Z,98102.78
2023-01-18T10:41:51.633Z,98101.09
2023-01-18T10:44:18.770Z,98096.84
2023-01-18T10:46:46.022Z,98108.72
2023-01-18T10:49:37.767Z,98098.53
2023-01-18T10:52:26.509Z,98101.94
2023-01-18T10:55:01.622Z,98102.78
2023-01-18T10:57:43.621Z,98107.88
2023-01-18T11:00:53.050Z,98109.59
2023-01-18T11:03:20.494Z,98111.28
2023-01-18T11:05:47.691Z,98120.59
2023-01-18T11:08:34.593Z,98107.84
2023-01-18T11:11:01.827Z,98122.25
2023-01-18T11:13:44.892Z,98121.41
2023-01-18T11:16:23.564Z,98119.75
2023-01-18T11:19:06.321Z,98114.63
2023-01-18T11:21:45.923Z,98129.94
2023-01-18T11:24:18.886Z,98124.84
2023-01-18T11:27:01.904Z,98114.66
2023-01-18T11:29:35.937Z,98112.06
2023-01-18T11:32:06.964Z,98116.31
2023-01-18T11:34:37.692Z,98113.75
2023-01-18T11:37:25.111Z,98112.91
2023-01-18T11:39:52.287Z,98118.84
2023-01-18T11:42:27.657Z,98118.84
2023-01-18T11:45:16.369Z,98119.69
2023-01-18T11:47:43.458Z,98118.81
2023-01-18T11:50:30.746Z,98123.06
2023-01-18T11:53:31.762Z,98121.38
2023-01-18T11:56:06.681Z,98118.78
2023-01-18T11:58:36.000Z,98111.16
2023-01-18T12:01:21.955Z,98119.63
2023-01-18T12:04:18.131Z,98113.72
2023-01-18T12:07:18.699Z,98112.06
2023-01-18T12:09:53.186Z,98112.03
2023-01-18T12:12:20.587Z,98112.91
2023-01-18T12:14:58.322Z,98116.28
2023-01-18T12:18:07.778Z,98113.78
2023-01-18T12:21:03.986Z,98111.25
2023-01-18T12:23:48.495Z,98106.25
2023-01-18T12:26:27.526Z,98108.78
2023-01-18T12:29:09.609Z,98116.44
2023-01-18T12:31:39.259Z,98119.84
2023-01-18T12:34:15.180Z,98119.84
2023-01-18T12:37:19.414Z,98117.34
2023-01-18T12:40:11.237Z,98129.22
2023-01-18T12:43:02.874Z,98136.84
2023-01-18T12:45:57.470Z,98133.50
2023-01-18T12:48:56.914Z,98146.19
2023-01-18T12:51:28.857Z,98148.75
2023-01-18T12:54:11.995Z,98145.38
2023-01-18T12:56:43.206Z,98155.53
2023-01-18T12:59:19.585Z,98155.56
2023-01-18T13:01:56.314Z,98152.19
2023-01-18T13:04:32.856Z,98164.06
2023-01-18T13:07:07.368Z,98169.16
2023-01-18T13:09:40.473Z,98174.25
2023-01-18T13:12:08.308Z,98179.34
2023-01-18T13:15:01.952Z,98181.03
2023-01-18T13:17:39.559Z,98186.16
2023-01-18T13:20:22.470Z,98179.34
2023-01-18T13:23:21.683Z,98187.00
2023-01-18T13:25:56.036Z,98182.72
2023-01-18T13:28:25.151Z,98181.06
2023-01-18T13:31:02.272Z,98191.25
2023-01-18T13:33:32.939Z,98203.97
2023-01-18T13:36:05.312Z,98197.97
2023-01-18T13:38:41.752Z,98202.22
2023-01-18T13:41:13.543Z,98209.88
2023-01-18T13:43:41.643Z,98209.00
2023-01-18T13:46:08.793Z,98208.16
2023-01-18T13:48:45.484Z,98213.25
2023-01-18T13:51:33.527Z,98206.47
2023-01-18T13:54:00.640Z,98220.03
2023-01-18T13:56:31.958Z,98203.06
2023-01-18T13:59:15.791Z,98209.84
2023-01-18T14:01:45.116Z,98209.84
2023-01-18T14:04:32.037Z,98214.09
2023-01-18T14:07:18.551Z,98216.63
2023-01-18T14:09:48.634Z,98216.63
2023-01-18T14:12:16.044Z,98213.25
2023-01-18T14:14:55.718Z,98214.94
2023-01-18T14:17:25.113Z,98219.16
2023-01-18T14:20:28.522Z,98216.63
2023-01-18T14:23:25.249Z,98225.97
2023-01-18T14:26:33.026Z,98223.44
2023-01-18T14:29:05.279Z,98225.13
2023-01-18T14:31:40.086Z,98225.13
2023-01-18T14:34:31.793Z,98232.78
2023-01-18T14:36:59.349Z,98230.22
2023-01-18T14:39:28.483Z,98235.31
2023-01-18T14:41:58.937Z,98240.41
2023-01-18T14:44:31.260Z,98237.00
2023-01-18T14:46:59.471Z,98242.97
2023-01-18T14:49:31.425Z,98240.41
2023-01-18T14:51:59.830Z,98239.59
2023-01-18T14:54:27.083Z,98247.19
2023-01-18T14:57:06.130Z,98254.00
2023-01-18T14:59:34.049Z,98257.38
2023-01-18T15:02:13.914Z,98260.78
2023-01-18T15:04:45.762Z,98260.75
2023-01-18T15:07:24.265Z,98257.38
2023-01-18T15:09:51.426Z,98263.31
2023-01-18T15:12:26.638Z,98284.56
2023-01-18T15:14:55.771Z,98276.06
2023-01-18T15:17:25.527Z,98282.84
2023-01-18T15:20:03.404Z,98267.66
2023-01-18T15:22:34.475Z,98287.13
2023-01-18T15:25:02.238Z,98283.75
2023-01-18T15:27:32.818Z,98300.75
2023-01-18T15:30:01.609Z,98280.38
2023-01-18T15:32:36.330Z,98298.19
2023-01-18T15:35:04.767Z,98299.88
2023-01-18T15:37:34.463Z,98308.38
2023-01-18T15:40:02.793Z,98310.94
2023-01-18T15:42:39.681Z,98325.38
2023-01-18T15:45:21.050Z,98323.69
2023-01-18T15:47:54.484Z,98318.59
2023-01-18T15:50:36.426Z,98327.91
2023-01-18T15:53:12.139Z,98330.47
2023-01-18T15:56:03.965Z,98339.81
2023-01-18T15:58:39.371Z,98338.97
2023-01-18T16:01:20.455Z,98349.16
2023-01-18T16:03:47.766Z,98354.28
2023-01-18T16:06:20.785Z,98361.06
2023-01-18T16:08:57.197Z,98363.63
2023-01-18T16:11:34.040Z,98364.47
2023-01-18T16:14:08.112Z,98358.53
2023-01-18T16:16:39.736Z,98372.13
2023-01-18T16:19:40.767Z,98363.66
2023-01-18T16:22:21.925Z,98347.56
2023-01-18T16:25:02.796Z,98376.34
2023-01-18T16:27:32.177Z,98382.31
2023-01-18T16:30:17.486Z,98384.88
2023-01-18T16:32:44.756Z,98390.78
2023-01-18T16:35:20.409Z,98395.03
2023-01-18T16:37:48.446Z,98386.56
2023-01-18T16:40:21.641Z,98392.50
2023-01-18T16:43:01.679Z,98393.34
2023-01-18T16:45:31.520Z,98396.75
2023-01-18T16:47:59.206Z,98400.16
2023-01-18T16:50:27.132Z,98404.41
2023-01-18T16:52:54.537Z,98406.94
2023-01-18T16:55:22.988Z,98407.78
2023-01-18T16:57:51.705Z,98410.34
2023-01-18T17:00:24.803Z,98418.84
2023-01-18T17:02:53.558Z,98419.72
2023-01-18T17:05:21.012Z,98426.50
2023-01-18T17:07:48.923Z,98434.16
2023-01-18T17:10:24.717Z,98440.91
2023-01-18T17:12:52.045Z,98448.56
2023-01-18T17:15:20.149Z,98438.38
2023-01-18T17:17:48.192Z,98446.03
2023-01-18T17:20:21.433Z,98454.53
2023-01-18T17:22:49.052Z,98455.38
2023-01-18T17:25:16.663Z,98458.75
2023-01-18T17:27:44.742Z,98464.72
2023-01-18T17:30:13.881Z,98462.19
2023-01-18T17:32:40.916Z,98442.69
2023-01-18T17:35:08.801Z,98476.59
2023-01-18T17:37:36.017Z,98483.38
2023-01-18T17:40:16.341Z,98484.22
2023-01-18T17:42:44.930Z,98490.19
2023-01-18T17:45:14.679Z,98498.69
2023-01-18T17:47:43.527Z,98503.78
2023-01-18T17:50:14.442Z,98497.00
2023-01-18T17:52:41.653Z,98505.44
2023-01-18T17:55:11.836Z,98510.56
2023-01-18T17:57:39.137Z,98521.59
2023-01-18T18:00:08.167Z,98512.25
2023-01-18T18:02:35.675Z,98505.44
2023-01-18T18:05:03.204Z,98520.75
2023-01-18T18:07:30.989Z,98519.06
2023-01-18T18:10:01.413Z,98521.56
2023-01-18T18:12:30.235Z,98525.84
2023-01-18T18:14:57.730Z,98532.63
2023-01-18T18:17:26.838Z,98534.31
2023-01-18T18:19:54.258Z,98536.00
2023-01-18T18:22:21.817Z,98540.25
2023-01-18T18:24:50.029Z,98541.09
2023-01-18T18:27:18.239Z,98547.91
2023-01-18T18:29:45.955Z,98552.97
2023-01-18T18:32:13.709Z,98563.16
2023-01-18T18:34:40.917Z,98564.84
2023-01-18T18:37:08.159Z,98576.75
2023-01-18T18:39:35.266Z,98575.03
2023-01-18T18:42:02.622Z,98579.31
2023-01-18T18:44:29.735Z,98586.94
2023-01-18T18:46:56.755Z,98589.50
2023-01-18T18:49:23.891Z,98595.41
2023-01-18T18:51:50.962Z,98607.28
2023-01-18T18:54:18.420Z,98612.41
2023-01-18T18:56:45.484Z,98621.75
2023-01-18T18:59:12.519Z,98619.19
2023-01-18T19:01:39.666Z,98631.09
2023-01-18T19:04:06.944Z,98634.47
2023-01-18T19:06:34.844Z,98641.28
2023-01-18T19:09:02.014Z,98642.97
2023-01-18T19:11:29.174Z,98648.06
2023-01-18T19:13:57.128Z,98656.56
2023-01-18T19:16:24.444Z,98657.41
2023-01-18T19:18:51.505Z,98664.19
2023-01-18T19:21:18.806Z,98675.22
2023-01-18T19:23:46.241Z,98685.44
2023-01-18T19:26:13.801Z,98684.56
2023-01-18T19:28:42.234Z,98694.75
2023-01-18T19:31:09.329Z,98702.38
2023-01-18T19:33:37.034Z,98681.97
2023-01-18T19:36:10.059Z,98707.47
2023-01-18T19:38:46.591Z,98708.31
2023-01-18T19:41:15.596Z,98711.72
2023-01-18T19:43:45.712Z,98707.47
2023-01-18T19:46:15.343Z,98714.25
2023-01-18T19:48:43.234Z,98721.09
2023-01-18T19:51:21.709Z,98719.38
2023-01-18T19:53:49.456Z,98711.72
2023-01-18T19:56:16.542Z,98724.44
2023-01-18T19:58:43.683Z,98728.72
2023-01-18T20:01:23.063Z,98723.63
2023-01-18T20:03:53.839Z,98726.19
2023-01-18T20:06:21.005Z,98727.03
2023-01-18T20:08:51.763Z,98741.47
2023-01-18T20:11:19.193Z,98732.97
2023-01-18T20:13:50.616Z,98738.06
2023-01-18T20:16:20.577Z,98744.88
2023-01-18T20:18:49.003Z,98741.47
2023-01-18T20:21:19.315Z,98744.00
2023-01-18T20:23:46.422Z,98743.16
2023-01-18T20:26:20.050Z,98739.78
2023-01-18T20:28:56.095Z,98740.63
2023-01-18T20:31:23.436Z,98739.78
2023-01-18T20:33:50.584Z,98741.47
2023-01-18T20:36:17.658Z,98753.34
2023-01-18T20:38:44.843Z,98766.94
2023-01-18T20:41:12.188Z,98769.47
2023-01-18T20:43:39.680Z,98766.94
2023-01-18T20:46:10.291Z,98768.63
2023-01-18T20:48:38.074Z,98761.84
2023-01-18T20:51:10.178Z,98764.38
2023-01-18T20:53:40.151Z,98765.25
2023-01-18T20:56:28.485Z,98771.22
2023-01-18T20:58:58.348Z,98775.47
2023-01-18T21:01:31.941Z,98783.97
2023-01-18T21:04:00.761Z,98792.44
2023-01-18T21:06:28.436Z,98800.94
2023-01-18T21:08:57.416Z,98806.03
2023-01-18T21:11:26.814Z,98823.00
2023-01-18T21:13:54.627Z,98817.88
2023-01-18T21:16:23.624Z,98831.47
2023-01-18T21:18:52.970Z,98838.25
2023-01-18T21:21:20.376Z,98844.16
2023-01-18T21:23:47.499Z,98848.41
2023-01-18T21:26:15.003Z,98855.19
2023-01-18T21:28:42.124Z,98870.47
2023-01-18T21:31:09.350Z,98868.75
2023-01-18T21:33:36.804Z,98856.75
2023-01-18T21:36:09.753Z,98858.41
2023-01-18T21:38:36.927Z,98889.09
2023-01-18T21:41:23.045Z,98880.63
2023-01-18T21:44:11.382Z,98890.81
2023-01-18T21:46:39.099Z,98892.50
2023-01-18T21:49:07.008Z,98892.50
2023-01-18T21:51:52.722Z,98894.22
2023-01-18T21:54:22.177Z,98893.38
2023-01-18T21:56:51.008Z,98899.31
2023-01-18T21:59:18.190Z,98901.03
2023-01-18T22:01:47.245Z,98915.47
2023-01-18T22:04:34.855Z,98918.84
2023-01-18T22:07:02.208Z,98919.69
2023-01-18T22:09:31.503Z,98914.56
2023-01-18T22:11:58.757Z,98918.88
2023-01-18T22:14:26.392Z,98923.09
2023-01-18T22:16:54.049Z,98923.09
2023-01-18T22:19:21.503Z,98927.34
2023-01-18T22:21:49.770Z,98931.59
2023-01-18T22:24:18.050Z,98930.75
2023-01-18T22:26:45.776Z,98936.69
2023-01-18T22:29:12.957Z,98941.81
2023-01-18T22:31:40.408Z,98935.03
2023-01-18T22:34:08.163Z,98935.06
2023-01-18T22:36:35.334Z,98929.97
2023-01-18T22:39:02.644Z,98920.63
2023-01-18T22:41:29.933Z,98916.38
2023-01-18T22:43:57.540Z,98907.91
2023-01-18T22:46:24.878Z,98917.25
2023-01-18T22:48:52.307Z,98914.72
2023-01-18T22:51:22.166Z,98913.88
2023-01-18T22:53:49.799Z,98923.19
2023-01-18T22:56:20.596Z,98929.97
2023-01-18T22:58:48.576Z,98941.84
2023-01-18T23:01:25.236Z,98940.13
2023-01-18T23:03:55.340Z,98954.59
2023-01-18T23:06:22.469Z,98970.69
2023-01-18T23:08:50.292Z,98969.81
2023-01-18T23:11:29.456Z,98970.66
2023-01-18T23:14:17.109Z,98970.66
2023-01-18T23:17:03.052Z,98979.13
2023-01-18T23:19:30.935Z,98979.97
2023-01-18T23:21:58.406Z,98968.91
2023-01-18T23:24:26.039Z,98985.06
2023-01-18T23:26:53.247Z,98984.25
2023-01-18T23:29:20.713Z,98970.56
2023-01-18T23:31:47.693Z,98987.63
2023-01-18T23:34:14.783Z,98990.13
2023-01-18T23:36:41.834Z,98990.97
2023-01-18T23:39:27.811Z,98967.06
2023-01-18T23:42:13.327Z,98995.22
2023-01-18T23:44:58.963Z,98999.44
2023-01-18T23:47:44.530Z,99006.19
2023-01-18T23:50:30.113Z,99001.03
2023-01-18T23:53:18.941Z,99015.50
2023-01-18T23:55:46.281Z,99021.44
2023-01-18T23:58:13.442Z,99023.16
